• Join FlightAware (Why Join?)
  • Login
  • US Flag 
02:25AM EDT


 

Airport Tracker/Info


-or-


 

Live Flight TrackerFlight Track Log ✈ MAS2743 ✈ 10-Jul-2013 ✈ WBGB / BTU - WMKK / KUL

Flight Track Log - Related Links

Times and Time Zones

All times are in EDT time to prevent confusion due to time zone crossing. See the MAS2743 flight status page for this flight to view local times or setup timezone preferences in your user account.

Time Position Orientation Groundspeed Altitude Reporting Facility
EDT Latitude Longitude Course Direction KTS MPH feet Rate Location/Type
01:55AM 2.9410 111.4990 262° West 489 563 30,800  Level FlightAware
01:56AM 2.9310 111.4300 262° West 487 560 31,100 1,440 Climbing FlightAware
01:56AM 2.9160 111.3150 263° West 482 555 32,800 1,680 Climbing FlightAware
01:57AM 2.9030 111.2220 262° West 480 552 33,700 840 Climbing FlightAware
01:58AM 2.8900 111.1350 261° West 480 552 34,000 720 Climbing FlightAware
01:59AM 2.8750 111.0320 262° West 480 552 34,800 1,260 Climbing FlightAware
01:59AM 2.8610 110.9220 263° West 480 552 36,000 1,140 Climbing FlightAware
02:00AM 2.8490 110.8380 262° West 478 550 36,700 960 Climbing FlightAware
02:01AM 2.8310 110.7140 262° West 475 547 37,600 900 Climbing FlightAware
02:02AM 2.8190 110.6280 262° West 475 547 38,000 240 Climbing FlightAware
02:02AM 2.8050 110.5290 262° West 475 547 38,000  Level FlightAware
02:03AM 2.7930 110.4420 262° West 474 545 38,000  Level FlightAware
02:04AM 2.7810 110.3580 262° West 474 545 38,000  Level FlightAware
02:04AM 2.7680 110.2620 262° West 473 544 38,000  Level FlightAware
02:05AM 2.7560 110.1830 261° West 473 544 38,000  Level FlightAware
02:06AM 2.7440 110.0950 262° West 473 544 38,000  Level FlightAware
02:06AM 2.7310 110.0000 262° West 473 544 38,000  Level FlightAware
02:07AM 2.7190 109.9170 262° West 468 539 38,000  Level FlightAware
02:08AM 2.7050 109.8200 262° West 469 540 38,000  Level FlightAware
02:09AM 2.6920 109.7240 262° West 474 545 38,000  Level FlightAware
02:09AM 2.6810 109.6450 262° West 474 545 38,000  Level FlightAware
02:10AM 2.6680 109.5560 262° West 475 547 38,000  Level FlightAware
02:10AM 2.6560 109.4760 261° West 475 547 38,000  Level FlightAware
02:11AM 2.6430 109.3820 262° West 475 547 38,000  Level FlightAware
02:12AM 2.6300 109.2930 262° West 475 547 38,000  Level FlightAware
02:12AM 2.6200 109.2170 262° West 476 548 38,000  Level FlightAware
02:13AM 2.6070 109.1280 262° West 477 549 38,000  Level FlightAware
02:14AM 2.5950 109.0410 262° West 476 548 38,000  Level FlightAware
02:15AM 2.5500 108.8540 256° West 478 550 38,000  Level FlightAware
02:16AM 2.5100 108.7490 249° West 479 551 38,000  Level FlightAware
02:17AM 2.4780 108.6670 249° West 481 554 38,000  Level FlightAware
02:17AM 2.4440 108.5800 249° West 482 555 38,000  Level FlightAware
02:18AM 2.4090 108.4880 249° West 481 554 38,000  Level FlightAware
02:19AM 2.3790 108.4100 249° West 481 554 38,000  Level FlightAware
02:20AM 2.3470 108.3270 249° West 481 554 38,000  Level FlightAware
02:20AM 2.3150 108.2450 249° West 482 555 38,000  Level FlightAware
02:21AM 2.2860 108.1680 249° West 481 554 38,000  Level FlightAware
02:22AM 2.2510 108.0810 248° West 482 555 38,000  Level FlightAware
02:22AM 2.2250 108.0170 248° West 482 555 38,000  Level FlightAware
02:23AM 2.1910 107.9330 248° West 482 555 38,000  Level FlightAware
02:24AM 2.1660 107.8700 248° West 482 555 38,000  Level FlightAware
02:24AM 2.1940 107.7290 281° West 478 550 38,000  Level FlightAware
02:25AM 2.2170 107.6470 286° West 479 551 38,000  Level FlightAware
02:26AM 2.2420 107.5550 285° West 478 550 38,000  Level FlightAware
02:26AM 2.2620 107.4820 285° West 478 550 38,000  Level FlightAware
02:27AM 2.2880 107.3890 286° West 477 549 38,000  Level FlightAware
02:28AM 2.3150 107.2920 286° West 478 550 38,000  Level FlightAware
02:28AM 2.3390 107.2050 285° West 479 551 38,000  Level FlightAware
02:29AM 2.3670 107.1010 285° West 480 552 38,000  Level FlightAware
02:29AM 2.3730 107.0790 285° West 480 552 38,000  Level FlightAware
02:31AM 2.4050 106.9590 285° West 480 552 38,000  Level FlightAware
02:31AM 2.4420 106.8330 286° West 482 555 38,000  Level FlightAware
02:32AM 2.4660 106.7460 285° West 482 555 38,000  Level FlightAware
02:33AM 2.4910 106.6570 286° West 483 556 38,000  Level FlightAware
02:33AM 2.5170 106.5620 285° West 485 558 38,000  Level FlightAware
02:34AM 2.5410 106.4760 286° West 485 558 38,000  Level FlightAware
02:35AM 2.5630 106.3960 285° West 485 558 38,000  Level FlightAware
02:35AM 2.5920 106.2920 286° West 486 559 38,000  Level FlightAware
02:36AM 2.6130 106.2150 285° West 485 558 38,000  Level FlightAware
02:37AM 2.6390 106.1210 285° West 486 559 38,000  Level FlightAware
02:37AM 2.6630 106.0340 285° West 486 559 38,000  Level FlightAware
02:39AM 2.7050 105.8780 285° West 487 560 38,000  Level FlightAware
02:39AM 2.7340 105.7760 286° West 488 562 38,000  Level FlightAware
02:40AM 2.7600 105.6820 285° West 487 560 38,000  Level FlightAware
02:41AM 2.7820 105.6000 285° West 486 559 38,000  Level FlightAware
02:42AM 2.8100 105.5000 286° West 483 556 38,000  Level FlightAware
02:42AM 2.8340 105.4130 285° West 482 555 38,000  Level FlightAware
02:43AM 2.8560 105.3320 285° West 481 554 38,000  Level FlightAware
02:44AM 2.8780 105.2520 285° West 480 552 38,000  Level FlightAware
02:44AM 2.9040 105.1600 286° West 477 549 38,000  Level FlightAware
02:45AM 2.9240 105.0870 285° West 478 550 38,000  Level FlightAware
02:46AM 2.9480 104.9950 285° West 478 550 38,000  Level FlightAware
02:46AM 2.9800 104.8850 286° West 478 550 38,000  Level FlightAware
02:47AM 3.0140 104.7580 285° West 480 552 38,000  Level FlightAware
02:48AM 3.0390 104.6680 286° West 482 555 38,000  Level FlightAware
02:49AM 3.0660 104.5710 286° West 482 555 38,000  Level FlightAware
02:49AM 3.0920 104.4770 285° West 483 556 38,000  Level FlightAware
02:50AM 3.1080 104.4200 286° West 484 557 38,000  Level FlightAware
02:51AM 3.1300 104.3390 285° West 485 558 38,000  Level FlightAware
02:51AM 3.1530 104.2510 285° West 485 558 38,000  Level FlightAware
02:52AM 3.1720 104.1820 285° West 485 558 38,000  Level FlightAware
02:53AM 3.1740 104.0360 271° West 487 560 38,000  Level FlightAware
02:54AM 3.1690 103.9200 268° West 487 560 38,000  Level FlightAware
02:54AM 3.1660 103.8190 268° West 489 563 38,000  Level FlightAware
02:55AM 3.1630 103.7330 268° West 489 563 38,000  Level FlightAware
02:56AM 3.1590 103.6240 268° West 487 560 38,000 -120 Level FlightAware
02:57AM 3.1560 103.5450 268° West 482 555 37,900 -1,680 Descending FlightAware
02:57AM 3.1350 103.4460 258° West 489 563 35,800 -2,700 Descending FlightAware
02:58AM 3.0990 103.3520 249° West 494 568 34,100 -2,700 Descending FlightAware
02:59AM 3.0670 103.2670 249° West 498 573 32,000 -3,180 Descending FlightAware
02:59AM 3.0310 103.1690 250° West 500 575 29,600 -1,800 Descending FlightAware
03:00AM 3.0050 103.1010 249° West 500 575 29,600  Level FlightAware
03:01AM 2.9700 103.0110 249° West 500 575 29,600 -3,900 Level FlightAware
03:01AM 2.9350 102.9110 251° West 475 547 24,000 -5,460 Descending FlightAware
03:02AM 2.9000 102.8180 249° West 459 528 22,200 -2,580 Descending FlightAware
03:03AM 2.8700 102.7380 249° West 451 519 20,400 -2,400 Descending FlightAware
03:04AM 2.8430 102.6660 249° West 434 499 19,100 -2,220 Descending FlightAware
03:04AM 2.8120 102.5800 250° West 419 482 17,300 -2,340 Descending FlightAware
03:05AM 2.7860 102.5070 250° West 407 468 15,800 -2,100 Descending FlightAware
03:06AM 2.7600 102.4330 251° West 389 448 14,400 -2,040 Descending FlightAware
03:06AM 2.7360 102.3660 250° West 377 434 13,000 -1,800 Descending FlightAware
03:07AM 2.7150 102.3070 250° West 349 402 12,000 -1,440 Descending FlightAware
03:08AM 2.6930 102.2450 250° West 313 360 11,100 -1,440 Descending FlightAware
03:09AM 2.6620 102.1590 250° West 282 325 9,400 -1,260 Descending FlightAware
03:10AM 2.6530 102.1330 251° West 282 325 8,600 -540 Descending FlightAware
03:10AM 2.6390 102.0950 250° West 282 325 8,600  Level FlightAware
03:11AM 2.6300 102.0690 251° West 282 325 8,600  Level FlightAware
03:11AM 2.6250 102.0570 247° West 282 325 8,600  Level FlightAware
03:14AM 2.7164 101.7941 289° West  Level Estimated
03:15AM 2.7456 101.7099 289° West  Level Estimated
03:16AM 2.7456 101.7099 236° Southwest  Level Estimated
03:17AM 2.7456 101.7099 236° Southwest  Level Estimated
03:18AM 2.7456 101.7099 236° Southwest  Level Estimated
03:19AM 2.7456 101.7099 236° Southwest  Level Estimated
03:20AM 2.7456 101.7099 236° Southwest  Level Estimated
03:21AM 2.7456 101.7099 236° Southwest  Level Estimated
03:22AM 2.7456 101.7099 236° Southwest  Level Estimated
03:23AM 2.7456 101.7099 236° Southwest  Level Estimated
03:24AM 2.7456 101.7099 236° Southwest  Level Estimated
03:25AM 2.7456 101.7099 236° Southwest  Level Estimated
03:26AM 2.7456 101.7099 236° Southwest  Level Estimated
03:27AM 2.7456 101.7099 236° Southwest  Level Estimated
03:28AM 2.7456 101.7099 236° Southwest  Level Estimated
03:29AM 2.7456 101.7099 236° Southwest  Level Estimated